Map

Track Data

SID SEASON NUMBER BASIN SUBBASIN NAME ISO_TIME NATURE LAT LON WMO_WIND WMO_PRES WMO_AGENCY TRACK_TYPE DIST2LAND LANDFALL IFLAG USA_AGENCY USA_ATCF_ID USA_LAT USA_LON USA_RECORD USA_STATUS USA_WIND USA_PRES USA_SSHS USA_R34_NE USA_R34_SE USA_R34_SW USA_R34_NW USA_R50_NE USA_R50_SE USA_R50_SW USA_R50_NW USA_R64_NE USA_R64_SE USA_R64_SW USA_R64_NW USA_POCI USA_ROCI USA_RMW USA_EYE TOKYO_LAT TOKYO_LON TOKYO_GRADE TOKYO_WIND TOKYO_PRES TOKYO_R50_DIR TOKYO_R50_LONG TOKYO_R50_SHORT TOKYO_R30_DIR TOKYO_R30_LONG TOKYO_R30_SHORT TOKYO_LAND CMA_LAT CMA_LON CMA_CAT CMA_WIND CMA_PRES HKO_LAT HKO_LON HKO_CAT HKO_WIND HKO_PRES NEWDELHI_LAT NEWDELHI_LON NEWDELHI_GRADE NEWDELHI_WIND NEWDELHI_PRES NEWDELHI_CI NEWDELHI_DP NEWDELHI_POCI REUNION_LAT REUNION_LON REUNION_TYPE REUNION_WIND REUNION_PRES REUNION_TNUM REUNION_CI REUNION_RMW REUNION_R34_NE REUNION_R34_SE REUNION_R34_SW REUNION_R34_NW REUNION_R50_NE REUNION_R50_SE REUNION_R50_SW REUNION_R50_NW REUNION_R64_NE REUNION_R64_SE REUNION_R64_SW REUNION_R64_NW BOM_LAT BOM_LON BOM_TYPE BOM_WIND BOM_PRES BOM_TNUM BOM_CI BOM_RMW BOM_R34_NE BOM_R34_SE BOM_R34_SW BOM_R34_NW BOM_R50_NE BOM_R50_SE BOM_R50_SW BOM_R50_NW BOM_R64_NE BOM_R64_SE BOM_R64_SW BOM_R64_NW BOM_ROCI BOM_POCI BOM_EYE BOM_POS_METHOD BOM_PRES_METHOD NADI_LAT NADI_LON NADI_CAT NADI_WIND NADI_PRES WELLINGTON_LAT WELLINGTON_LON WELLINGTON_WIND WELLINGTON_PRES DS824_LAT DS824_LON DS824_STAGE DS824_WIND DS824_PRES TD9636_LAT TD9636_LON TD9636_STAGE TD9636_WIND TD9636_PRES TD9635_LAT TD9635_LON TD9635_WIND TD9635_PRES TD9635_ROCI NEUMANN_LAT NEUMANN_LON NEUMANN_CLASS NEUMANN_WIND NEUMANN_PRES MLC_LAT MLC_LON MLC_CLASS MLC_WIND MLC_PRES USA_GUST BOM_GUST BOM_GUST_PER REUNION_GUST REUNION_GUST_PER USA_SEAHGT USA_SEARAD_NE USA_SEARAD_SE USA_SEARAD_SW USA_SEARAD_NW STORM_SPEED STORM_DIR
1866032S20072 1866 3 SI MM NOT_NAMED 1866-01-31 18:00:00 NR -19.5000 71.7000 main 1455 1422 __________O___ -1 -19.5000 71.7000 7 8 239
1866032S20072 1866 3 SI MM NOT_NAMED 1866-01-31 21:00:00 NR -19.7032 71.3470 main 1411 1378 __________P___ -1 -19.7032 71.3470 7 8 239
1866032S20072 1866 3 SI MM NOT_NAMED 1866-02-01 00:00:00 NR -19.9149 70.9750 main 1378 1335 __________P___ -1 -19.9149 70.9750 7 9 239
1866032S20072 1866 3 SI MM NOT_NAMED 1866-02-01 03:00:00 NR -20.1442 70.5656 main 1335 1281 __________P___ -1 -20.1442 70.5656 7 10 239
1866032S20072 1866 3 SI MM NOT_NAMED 1866-02-01 06:00:00 NR -20.4000 70.1000 main 1281 1229 __________O___ -1 -20.4000 70.1000 7 11 240
1866032S20072 1866 3 SI MM NOT_NAMED 1866-02-01 09:00:00 NR -20.6885 69.5672 main 1229 1167 __________P___ -1 -20.6885 69.5672 7 12 240
1866032S20072 1866 3 SI MM NOT_NAMED 1866-02-01 12:00:00 NR -21.0055 68.9874 main 1167 1107 __________P___ -1 -21.0055 68.9874 7 13 239
1866032S20072 1866 3 SI MM NOT_NAMED 1866-02-01 15:00:00 NR -21.3447 68.3889 main 1107 1049 __________P___ -1 -21.3447 68.3889 7 13 238
1866032S20072 1866 3 SI MM NOT_NAMED 1866-02-01 18:00:00 NR -21.7000 67.8000 main 1049 1002 __________O___ -1 -21.7000 67.8000 7 12 236
1866032S20072 1866 3 SI MM NOT_NAMED 1866-02-01 21:00:00 NR -22.0389 67.2870 main 1002 960 __________P___ -1 -22.0389 67.2870 7 12 234
1866032S20072 1866 3 SI MM NOT_NAMED 1866-02-02 00:00:00 NR -22.3955 66.7844 main 960 919 __________P___ -1 -22.3955 66.7844 7 12 232
1866032S20072 1866 3 SI MM NOT_NAMED 1866-02-02 03:00:00 NR -22.7794 66.2646 main 922 877 __________P___ -1 -22.7794 66.2646 7 13 231
1866032S20072 1866 3 SI MM NOT_NAMED 1866-02-02 06:00:00 NR -23.2000 65.7000 main 877 837 __________O___ -1 -23.2000 65.7000 7 14 232
1866032S20072 1866 3 SI MM NOT_NAMED 1866-02-02 09:00:00 NR -23.6565 65.0342 main 832 797 __________P___ -1 -23.6565 65.0342 7 16 233
1866032S20072 1866 3 SI MM NOT_NAMED 1866-02-02 12:00:00 NR -24.1484 64.3226 main 788 759 __________P___ -1 -24.1484 64.3226 7 17 232
1866032S20072 1866 3 SI MM NOT_NAMED 1866-02-02 15:00:00 NR -24.6659 63.5995 main 765 747 __________P___ -1 -24.6659 63.5995 7 17 231
1866032S20072 1866 3 SI MM NOT_NAMED 1866-02-02 18:00:00 NR -25.2000 62.9000 main 747 741 __________O___ -1 -25.2000 62.9000 7 16 229
1866032S20072 1866 3 SI MM NOT_NAMED 1866-02-02 21:00:00 NR -25.7434 62.2513 main 747 743 __________P___ -1 -25.7434 62.2513 7 16 226
1866032S20072 1866 3 SI MM NOT_NAMED 1866-02-03 00:00:00 NR -26.2929 61.6458 main 760 760 __________P___ -1 -26.2929 61.6458 7 15 224
1866032S20072 1866 3 SI MM NOT_NAMED 1866-02-03 03:00:00 NR -26.8461 61.0675 main 784 784 __________P___ -1 -26.8461 61.0675 7 15 223
1866032S20072 1866 3 SI MM NOT_NAMED 1866-02-03 06:00:00 NR -27.4000 60.5000 main 821 __________O___ -1 -27.4000 60.5000 7 15 222

About IBTrACS Database

This database is a web-friendly format of International Best Track Archive for Climate Stewardship (IBTrACS), a global best track data archive curated by NOAA dating back to 1842.

Updated: 2021-12-06